createdAt,value
2023-04-18T00:01:53.618Z,63.50
2023-04-18T00:04:20.961Z,63.50
2023-04-18T00:06:49.943Z,63.30
2023-04-18T00:09:18.488Z,63.20
2023-04-18T00:11:45.834Z,63.20
2023-04-18T00:14:13.610Z,63.30
2023-04-18T00:16:40.916Z,63.20
2023-04-18T00:19:08.770Z,63.20
2023-04-18T00:21:37.217Z,63.20
2023-04-18T00:24:04.339Z,63.30
2023-04-18T00:26:31.323Z,63.30
2023-04-18T00:28:58.631Z,63.40
2023-04-18T00:31:26.066Z,63.50
2023-04-18T00:33:53.112Z,63.40
2023-04-18T00:36:20.067Z,63.50
2023-04-18T00:38:47.000Z,63.60
2023-04-18T00:41:14.978Z,63.70
2023-04-18T00:43:41.935Z,63.80
2023-04-18T00:46:09.251Z,63.90
2023-04-18T00:48:36.446Z,63.90
2023-04-18T00:51:03.463Z,63.90
2023-04-18T00:53:30.979Z,63.70
2023-04-18T00:55:58.095Z,63.60
2023-04-18T00:58:25.922Z,63.50
2023-04-18T01:00:54.559Z,63.30
2023-04-18T01:03:22.976Z,63.20
2023-04-18T01:05:50.233Z,63.00
2023-04-18T01:08:19.250Z,62.80
2023-04-18T01:10:46.687Z,62.60
2023-04-18T01:13:20.239Z,62.50
2023-04-18T01:15:49.696Z,63.10
2023-04-18T01:18:17.893Z,62.20
2023-04-18T01:20:48.705Z,62.00
2023-04-18T01:23:16.665Z,61.90
2023-04-18T01:25:44.398Z,61.80
2023-04-18T01:28:12.419Z,61.80
2023-04-18T01:30:39.463Z,61.90
2023-04-18T01:33:07.020Z,61.90
2023-04-18T01:35:34.347Z,61.80
2023-04-18T01:38:01.402Z,61.80
2023-04-18T01:40:29.895Z,61.70
2023-04-18T01:42:56.890Z,61.50
2023-04-18T01:45:24.074Z,61.60
2023-04-18T01:47:51.124Z,61.60
2023-04-18T01:50:18.167Z,61.60
2023-04-18T01:52:45.218Z,61.70
2023-04-18T01:55:12.341Z,61.70
2023-04-18T01:57:39.289Z,61.90
2023-04-18T02:00:07.648Z,62.10
2023-04-18T02:02:43.611Z,62.30
2023-04-18T02:05:10.979Z,62.40
2023-04-18T02:07:40.330Z,62.50
2023-04-18T02:10:08.176Z,62.60
2023-04-18T02:12:35.102Z,62.80
2023-04-18T02:15:02.373Z,62.80
2023-04-18T02:17:29.576Z,62.80
2023-04-18T02:19:56.605Z,62.80
2023-04-18T02:22:23.824Z,62.70
2023-04-18T02:24:50.805Z,62.60
2023-04-18T02:27:18.938Z,62.50
2023-04-18T02:29:45.911Z,62.50
2023-04-18T02:32:12.928Z,63.20
2023-04-18T02:34:43.536Z,62.50
2023-04-18T02:37:11.263Z,62.60
2023-04-18T02:39:40.427Z,62.70
2023-04-18T02:42:07.377Z,62.60
2023-04-18T02:44:34.395Z,62.50
2023-04-18T02:47:01.600Z,62.50
2023-04-18T02:49:29.846Z,62.40
2023-04-18T02:51:57.624Z,62.20
2023-04-18T02:54:24.904Z,62.10
2023-04-18T02:56:57.550Z,61.90
2023-04-18T02:59:44.721Z,61.70
2023-04-18T03:02:32.106Z,61.70
2023-04-18T03:05:06.982Z,61.60
2023-04-18T03:07:34.211Z,61.60
2023-04-18T03:10:01.167Z,61.50
2023-04-18T03:12:33.398Z,61.60
2023-04-18T03:15:01.017Z,61.60
2023-04-18T03:17:28.538Z,61.60
2023-04-18T03:19:55.833Z,61.70
2023-04-18T03:22:23.813Z,61.80
2023-04-18T03:24:55.393Z,61.70
2023-04-18T03:27:31.446Z,61.80
2023-04-18T03:29:58.503Z,61.70
2023-04-18T03:32:25.840Z,61.80
2023-04-18T03:34:52.889Z,62.00
2023-04-18T03:37:20.039Z,62.00
2023-04-18T03:39:52.509Z,62.00
2023-04-18T03:42:19.952Z,62.10
2023-04-18T03:44:46.886Z,62.10
2023-04-18T03:47:17.319Z,62.00
2023-04-18T03:49:47.927Z,61.90
2023-04-18T03:52:16.102Z,61.70
2023-04-18T03:54:44.104Z,61.60
2023-04-18T03:57:11.996Z,61.40
2023-04-18T03:59:39.076Z,61.40
2023-04-18T04:02:06.800Z,61.30
2023-04-18T04:04:34.045Z,61.30
2023-04-18T04:07:01.766Z,61.30
2023-04-18T04:09:29.825Z,61.30
2023-04-18T04:11:56.757Z,61.20
2023-04-18T04:14:24.710Z,61.10
2023-04-18T04:16:53.645Z,61.10
2023-04-18T04:19:21.382Z,61.20
2023-04-18T04:22:00.149Z,61.50
2023-04-18T04:24:29.170Z,61.70
2023-04-18T04:26:57.182Z,62.00
2023-04-18T04:29:26.427Z,62.20
2023-04-18T04:31:53.657Z,62.40
2023-04-18T04:34:31.126Z,62.60
2023-04-18T04:37:00.846Z,63.00
2023-04-18T04:39:29.424Z,63.20
2023-04-18T04:42:19.817Z,63.40
2023-04-18T04:44:56.575Z,63.60
2023-04-18T04:47:24.035Z,63.60
2023-04-18T04:49:51.012Z,63.60
2023-04-18T04:52:18.032Z,63.80
2023-04-18T04:54:45.917Z,63.70
2023-04-18T04:57:15.618Z,63.50
2023-04-18T04:59:42.917Z,63.40
2023-04-18T05:02:11.018Z,63.30
2023-04-18T05:04:38.162Z,63.80
2023-04-18T05:07:05.818Z,62.80
2023-04-18T05:09:32.722Z,62.50
2023-04-18T05:11:59.649Z,62.20
2023-04-18T05:14:27.748Z,62.00
2023-04-18T05:16:55.842Z,61.70
2023-04-18T05:19:23.308Z,61.50
2023-04-18T05:21:50.226Z,61.20
2023-04-18T05:24:17.240Z,61.10
2023-04-18T05:26:44.428Z,60.80
2023-04-18T05:29:11.374Z,60.60
2023-04-18T05:31:38.399Z,60.40
2023-04-18T05:34:05.390Z,60.10
2023-04-18T05:36:32.432Z,59.80
2023-04-18T05:38:59.328Z,59.70
2023-04-18T05:41:26.322Z,59.50
2023-04-18T05:44:02.394Z,59.10
2023-04-18T05:46:40.450Z,58.80
2023-04-18T05:49:07.489Z,58.50
2023-04-18T05:51:34.524Z,58.20
2023-04-18T05:54:01.556Z,57.80
2023-04-18T05:56:28.586Z,57.40
2023-04-18T05:58:56.753Z,56.90
2023-04-18T06:01:23.867Z,56.10
2023-04-18T06:03:50.960Z,55.30
2023-04-18T06:06:18.227Z,54.80
2023-04-18T06:08:45.222Z,54.50
2023-04-18T06:11:12.256Z,54.00
2023-04-18T06:13:39.207Z,53.40
2023-04-18T06:16:06.347Z,52.60
2023-04-18T06:18:34.419Z,50.90
2023-04-18T06:21:01.298Z,50.30
2023-04-18T06:23:28.236Z,48.90
2023-04-18T06:25:55.079Z,48.30
2023-04-18T06:28:22.220Z,46.90
2023-04-18T06:30:49.100Z,44.70
2023-04-18T06:33:16.021Z,41.90
2023-04-18T06:35:42.888Z,40.80
2023-04-18T06:38:11.199Z,40.50
2023-04-18T06:40:38.014Z,40.60
2023-04-18T06:43:04.806Z,40.80
2023-04-18T06:45:32.412Z,41.00
2023-04-18T06:48:02.372Z,41.10
2023-04-18T06:50:29.661Z,41.40
2023-04-18T06:52:56.570Z,41.30
2023-04-18T06:55:23.386Z,41.10
2023-04-18T06:57:50.715Z,40.80
2023-04-18T07:00:17.749Z,40.70
2023-04-18T07:02:44.736Z,40.60
2023-04-18T07:05:11.982Z,40.50
2023-04-18T07:07:39.130Z,41.40
2023-04-18T07:10:06.830Z,39.70
2023-04-18T07:12:33.946Z,38.60
2023-04-18T07:15:00.774Z,37.90
2023-04-18T07:17:27.696Z,37.40
2023-04-18T07:19:54.536Z,37.50
2023-04-18T07:22:22.185Z,37.40
2023-04-18T07:24:49.023Z,36.40
2023-04-18T07:27:16.081Z,34.90
2023-04-18T07:29:42.917Z,32.30
2023-04-18T07:32:10.892Z,30.80
2023-04-18T07:34:37.777Z,29.60
2023-04-18T07:37:04.694Z,28.60
2023-04-18T07:39:35.849Z,27.80
2023-04-18T07:42:03.656Z,27.40
2023-04-18T07:44:30.697Z,27.10
2023-04-18T07:46:57.612Z,26.70
2023-04-18T07:49:24.489Z,26.30
2023-04-18T07:51:51.318Z,26.20
2023-04-18T07:54:18.309Z,25.90
2023-04-18T07:56:45.256Z,26.50
2023-04-18T07:59:12.382Z,25.80
2023-04-18T08:01:39.312Z,26.20
2023-04-18T08:04:06.299Z,26.00
2023-04-18T08:06:34.690Z,25.70
2023-04-18T08:09:05.500Z,25.50
2023-04-18T08:11:33.278Z,25.80
2023-04-18T08:14:00.125Z,25.60
2023-04-18T08:16:27.098Z,26.10
2023-04-18T08:18:54.081Z,26.20
2023-04-18T08:21:21.075Z,25.90
2023-04-18T08:23:47.926Z,26.00
2023-04-18T08:26:14.785Z,25.80
2023-04-18T08:28:41.981Z,25.70
2023-04-18T08:31:11.939Z,25.70
2023-04-18T08:33:38.781Z,25.80
2023-04-18T08:36:05.906Z,25.60
2023-04-18T08:38:32.765Z,25.20
2023-04-18T08:40:59.566Z,25.90
2023-04-18T08:43:29.112Z,26.70
2023-04-18T08:46:01.614Z,26.90
2023-04-18T08:48:29.573Z,27.00
2023-04-18T08:50:59.712Z,27.70
2023-04-18T08:53:27.732Z,28.30
2023-04-18T08:55:57.507Z,28.60
2023-04-18T08:58:27.465Z,28.90
2023-04-18T09:00:56.503Z,28.60
2023-04-18T09:03:35.249Z,28.50
2023-04-18T09:06:22.268Z,27.60
2023-04-18T09:09:00.278Z,27.20
2023-04-18T09:11:30.164Z,27.20
2023-04-18T09:13:59.018Z,26.50
2023-04-18T09:16:27.799Z,26.50
2023-04-18T09:19:13.835Z,26.80
2023-04-18T09:21:44.632Z,26.60
2023-04-18T09:24:21.800Z,26.10
2023-04-18T09:26:50.025Z,26.40
2023-04-18T09:29:19.693Z,25.90
2023-04-18T09:32:00.050Z,24.50
2023-04-18T09:34:29.307Z,24.20
2023-04-18T09:37:17.483Z,24.20
2023-04-18T09:39:46.506Z,23.60
2023-04-18T09:42:14.362Z,23.70
2023-04-18T09:44:58.743Z,23.80
2023-04-18T09:47:27.843Z,23.40
2023-04-18T09:49:56.535Z,23.30
2023-04-18T09:52:25.923Z,22.90
2023-04-18T09:54:56.984Z,22.90
2023-04-18T09:57:27.164Z,23.00
2023-04-18T10:00:02.145Z,23.40
2023-04-18T10:02:35.849Z,23.60
2023-04-18T10:05:09.007Z,24.20
2023-04-18T10:07:37.010Z,25.10
2023-04-18T10:10:05.044Z,25.40
2023-04-18T10:12:33.504Z,26.10
2023-04-18T10:15:02.830Z,27.00
2023-04-18T10:17:44.582Z,27.60
2023-04-18T10:20:21.093Z,28.10
2023-04-18T10:22:49.390Z,28.10
2023-04-18T10:25:36.345Z,27.90
2023-04-18T10:28:08.133Z,28.00
2023-04-18T10:30:42.877Z,27.60
2023-04-18T10:33:32.182Z,27.00
2023-04-18T10:36:04.552Z,26.40
2023-04-18T10:38:33.074Z,25.60
2023-04-18T10:41:15.437Z,24.90
2023-04-18T10:44:01.949Z,24.50
2023-04-18T10:46:32.788Z,24.30
2023-04-18T10:49:16.519Z,23.90
2023-04-18T10:51:50.650Z,23.70
2023-04-18T10:54:39.589Z,23.00
2023-04-18T10:57:12.339Z,22.90
2023-04-18T10:59:43.904Z,22.70
2023-04-18T11:02:21.804Z,22.80
2023-04-18T11:04:51.366Z,22.30
2023-04-18T11:07:18.157Z,22.60
2023-04-18T11:09:54.771Z,22.70
2023-04-18T11:12:22.785Z,23.10
2023-04-18T11:14:53.711Z,23.20
2023-04-18T11:17:23.589Z,23.40
2023-04-18T11:20:00.375Z,23.40
2023-04-18T11:22:28.627Z,23.40
2023-04-18T11:25:00.520Z,22.40
2023-04-18T11:27:29.666Z,21.90
2023-04-18T11:29:58.562Z,22.50
2023-04-18T11:32:26.619Z,22.90
2023-04-18T11:34:55.035Z,23.40
2023-04-18T11:37:23.970Z,23.30
2023-04-18T11:39:54.788Z,23.20
2023-04-18T11:42:27.736Z,23.00
2023-04-18T11:44:55.717Z,22.80
2023-04-18T11:47:29.747Z,22.90
2023-04-18T11:49:58.957Z,23.30
2023-04-18T11:52:29.402Z,23.60
2023-04-18T11:55:09.757Z,23.60
2023-04-18T11:57:38.653Z,23.20
2023-04-18T12:00:07.571Z,23.60
2023-04-18T12:02:39.825Z,24.30
2023-04-18T12:05:08.519Z,24.10
2023-04-18T12:07:44.100Z,24.10
2023-04-18T12:10:20.973Z,23.10
2023-04-18T12:12:51.277Z,23.00
2023-04-18T12:15:20.032Z,23.50
2023-04-18T12:17:52.877Z,23.50
2023-04-18T12:20:24.856Z,23.60
2023-04-18T12:22:56.012Z,23.80
2023-04-18T12:25:27.402Z,23.80
2023-04-18T12:27:56.836Z,23.90
2023-04-18T12:30:31.912Z,23.40
2023-04-18T12:33:02.354Z,23.10
2023-04-18T12:35:31.594Z,22.70
2023-04-18T12:38:00.433Z,22.60
2023-04-18T12:40:29.928Z,22.90
2023-04-18T12:42:58.785Z,23.20
2023-04-18T12:45:26.928Z,23.40
2023-04-18T12:47:54.820Z,24.20
2023-04-18T12:50:24.756Z,25.10
2023-04-18T12:52:53.769Z,25.80
2023-04-18T12:55:22.881Z,26.30
2023-04-18T12:57:52.626Z,26.70
2023-04-18T13:00:21.406Z,27.00
2023-04-18T13:02:49.746Z,27.30
2023-04-18T13:05:18.789Z,27.60
2023-04-18T13:07:48.946Z,27.10
2023-04-18T13:10:19.262Z,26.60
2023-04-18T13:12:48.626Z,26.00
2023-04-18T13:15:17.851Z,25.80
2023-04-18T13:17:46.012Z,24.90
2023-04-18T13:20:15.404Z,24.90
2023-04-18T13:22:42.877Z,24.70
2023-04-18T13:25:12.519Z,24.50
2023-04-18T13:27:41.970Z,24.30
2023-04-18T13:30:10.864Z,24.30
2023-04-18T13:32:43.069Z,24.10
2023-04-18T13:35:11.261Z,24.20
2023-04-18T13:37:40.641Z,24.60
2023-04-18T13:40:08.755Z,25.10
2023-04-18T13:42:38.672Z,25.60
2023-04-18T13:45:07.464Z,25.70
2023-04-18T13:47:34.872Z,26.30
2023-04-18T13:50:03.022Z,27.10
2023-04-18T13:52:29.849Z,27.60
2023-04-18T13:54:56.830Z,28.00
2023-04-18T13:57:23.680Z,28.70
2023-04-18T13:59:50.548Z,28.80
2023-04-18T14:02:17.606Z,29.30
2023-04-18T14:04:44.762Z,29.70
2023-04-18T14:07:11.959Z,29.80
2023-04-18T14:09:39.166Z,30.00
2023-04-18T14:12:06.184Z,30.00
2023-04-18T14:14:32.965Z,29.90
2023-04-18T14:16:59.822Z,29.80
2023-04-18T14:19:26.799Z,30.20
2023-04-18T14:21:53.613Z,30.10
2023-04-18T14:24:20.594Z,30.30
2023-04-18T14:26:48.052Z,30.40
2023-04-18T14:29:15.152Z,30.60
2023-04-18T14:31:42.392Z,30.30
2023-04-18T14:34:09.808Z,30.50
2023-04-18T14:36:36.905Z,30.80
2023-04-18T14:39:03.768Z,30.70
2023-04-18T14:41:30.760Z,30.70
2023-04-18T14:43:57.568Z,30.80
2023-04-18T14:46:24.539Z,30.50
2023-04-18T14:48:51.389Z,30.20
2023-04-18T14:51:18.377Z,30.00
2023-04-18T14:53:48.713Z,29.80
2023-04-18T14:56:16.504Z,30.00
2023-04-18T14:58:43.918Z,29.80
2023-04-18T15:01:10.903Z,29.60
2023-04-18T15:03:38.211Z,28.90
2023-04-18T15:06:05.740Z,28.70
2023-04-18T15:08:33.073Z,29.40
2023-04-18T15:10:59.992Z,29.20
2023-04-18T15:13:26.826Z,29.20
2023-04-18T15:15:54.428Z,29.30
2023-04-18T15:18:21.589Z,29.60
2023-04-18T15:20:48.586Z,29.60
2023-04-18T15:23:15.863Z,30.00
2023-04-18T15:25:43.935Z,30.30
2023-04-18T15:28:11.767Z,30.50
2023-04-18T15:30:39.009Z,31.30
2023-04-18T15:33:06.098Z,31.80
2023-04-18T15:35:32.947Z,32.20
2023-04-18T15:37:59.901Z,32.40
2023-04-18T15:40:26.871Z,32.50
2023-04-18T15:42:54.421Z,32.80
2023-04-18T15:45:21.875Z,33.10
2023-04-18T15:47:48.936Z,33.60
2023-04-18T15:50:16.521Z,33.90
2023-04-18T15:52:44.061Z,34.10
2023-04-18T15:55:12.389Z,34.20
2023-04-18T15:57:39.475Z,34.20
2023-04-18T16:00:11.845Z,34.30
2023-04-18T16:02:38.846Z,34.60
2023-04-18T16:05:06.074Z,34.90
2023-04-18T16:07:32.882Z,35.10
2023-04-18T16:10:02.610Z,35.50
2023-04-18T16:12:29.579Z,36.10
2023-04-18T16:14:56.425Z,36.50
2023-04-18T16:17:23.332Z,36.70
2023-04-18T16:19:50.197Z,37.40
2023-04-18T16:22:17.017Z,37.80
2023-04-18T16:24:43.988Z,38.40
2023-04-18T16:27:10.814Z,38.80
2023-04-18T16:29:37.653Z,39.10
2023-04-18T16:32:06.620Z,39.40
2023-04-18T16:34:34.477Z,39.40
2023-04-18T16:37:01.412Z,39.60
2023-04-18T16:39:29.086Z,39.80
2023-04-18T16:41:56.143Z,39.90
2023-04-18T16:44:23.098Z,40.20
2023-04-18T16:46:50.059Z,40.30
2023-04-18T16:49:16.894Z,40.70
2023-04-18T16:51:43.799Z,40.80
2023-04-18T16:54:10.864Z,41.10
2023-04-18T16:56:37.822Z,41.40
2023-04-18T16:59:04.780Z,41.70
2023-04-18T17:01:31.973Z,43.00
2023-04-18T17:03:59.114Z,42.80
2023-04-18T17:06:27.271Z,43.10
2023-04-18T17:08:54.274Z,43.30
2023-04-18T17:11:21.234Z,43.80
2023-04-18T17:13:48.126Z,44.20
2023-04-18T17:16:15.030Z,44.80
2023-04-18T17:18:41.893Z,44.90
2023-04-18T17:21:12.361Z,45.30
2023-04-18T17:23:41.509Z,45.80
2023-04-18T17:26:11.500Z,46.10
2023-04-18T17:28:40.259Z,46.40
2023-04-18T17:31:07.588Z,46.60
2023-04-18T17:33:34.707Z,47.00
2023-04-18T17:36:02.173Z,47.30
2023-04-18T17:38:29.814Z,47.60
2023-04-18T17:41:00.306Z,47.90
2023-04-18T17:43:27.591Z,48.10
2023-04-18T17:45:55.946Z,48.20
2023-04-18T17:48:22.824Z,48.40
2023-04-18T17:50:49.678Z,48.80
2023-04-18T17:53:17.465Z,49.30
2023-04-18T17:55:46.782Z,50.10
2023-04-18T17:58:13.660Z,50.50
2023-04-18T18:00:40.529Z,50.80
2023-04-18T18:03:13.464Z,51.10
2023-04-18T18:05:41.265Z,51.50
2023-04-18T18:08:08.092Z,51.80
2023-04-18T18:10:34.918Z,52.20
2023-04-18T18:13:01.772Z,52.70
2023-04-18T18:15:28.588Z,53.20
2023-04-18T18:17:55.710Z,53.70
2023-04-18T18:20:22.829Z,54.20
2023-04-18T18:22:49.978Z,54.50
2023-04-18T18:25:16.946Z,54.80
2023-04-18T18:27:43.951Z,55.10
2023-04-18T18:30:10.870Z,55.20
2023-04-18T18:32:37.780Z,55.40
2023-04-18T18:35:06.158Z,55.50
2023-04-18T18:37:33.232Z,55.60
2023-04-18T18:40:00.458Z,55.60
2023-04-18T18:42:27.475Z,55.50
2023-04-18T18:44:54.307Z,55.60
2023-04-18T18:47:21.348Z,55.60
2023-04-18T18:49:48.812Z,55.60
2023-04-18T18:52:16.066Z,55.60
2023-04-18T18:54:43.752Z,55.60
2023-04-18T18:57:10.840Z,55.70
2023-04-18T18:59:37.636Z,55.70
2023-04-18T19:02:04.581Z,55.90
2023-04-18T19:04:31.551Z,55.90
2023-04-18T19:06:58.826Z,56.10
2023-04-18T19:09:25.697Z,56.20
2023-04-18T19:11:53.220Z,56.30
2023-04-18T19:14:20.491Z,56.40
2023-04-18T19:16:47.389Z,56.50
2023-04-18T19:19:14.979Z,56.50
2023-04-18T19:21:45.815Z,56.60
2023-04-18T19:24:13.196Z,56.60
2023-04-18T19:26:40.092Z,56.70
2023-04-18T19:29:07.863Z,56.70
2023-04-18T19:31:35.371Z,56.80
2023-04-18T19:34:02.374Z,56.90
2023-04-18T19:36:29.267Z,56.90
2023-04-18T19:38:56.041Z,57.00
2023-04-18T19:41:24.471Z,57.40
2023-04-18T19:43:51.485Z,57.40
2023-04-18T19:46:18.472Z,57.40
2023-04-18T19:48:45.673Z,57.30
2023-04-18T19:51:12.577Z,57.40
2023-04-18T19:53:39.428Z,57.30
2023-04-18T19:56:06.361Z,57.30
2023-04-18T19:58:37.932Z,57.60
2023-04-18T20:01:06.089Z,57.80
2023-04-18T20:03:34.052Z,58.00
2023-04-18T20:06:01.518Z,58.00
2023-04-18T20:08:29.327Z,58.20
2023-04-18T20:10:57.011Z,58.30
2023-04-18T20:13:23.897Z,58.40
2023-04-18T20:15:50.858Z,58.60
2023-04-18T20:18:18.048Z,58.70
2023-04-18T20:20:45.129Z,58.70
2023-04-18T20:23:12.083Z,58.70
2023-04-18T20:25:39.014Z,58.70
2023-04-18T20:28:06.422Z,58.70
2023-04-18T20:30:36.100Z,58.70
2023-04-18T20:33:03.387Z,58.80
2023-04-18T20:35:31.516Z,58.70
2023-04-18T20:38:00.407Z,58.80
2023-04-18T20:40:28.338Z,58.90
2023-04-18T20:42:59.114Z,59.10
2023-04-18T20:45:28.316Z,59.10
2023-04-18T20:47:57.548Z,59.20
2023-04-18T20:50:25.429Z,59.20
2023-04-18T20:52:52.345Z,59.30
2023-04-18T20:55:19.484Z,59.30
2023-04-18T20:57:46.418Z,59.30
2023-04-18T21:00:16.573Z,59.40
2023-04-18T21:02:45.091Z,59.50
2023-04-18T21:05:12.460Z,59.60
2023-04-18T21:07:39.417Z,59.70
2023-04-18T21:10:07.347Z,59.80
2023-04-18T21:12:34.577Z,59.80
2023-04-18T21:15:01.576Z,59.90
2023-04-18T21:17:28.671Z,59.90
2023-04-18T21:19:55.884Z,60.00
2023-04-18T21:22:23.101Z,60.10
2023-04-18T21:24:50.242Z,60.20
2023-04-18T21:27:18.352Z,60.20
2023-04-18T21:29:45.884Z,60.20
2023-04-18T21:32:13.046Z,60.20
2023-04-18T21:34:40.041Z,60.10
2023-04-18T21:37:06.984Z,60.10
2023-04-18T21:39:34.056Z,60.10
2023-04-18T21:42:01.979Z,60.10
2023-04-18T21:44:29.019Z,60.10
2023-04-18T21:46:57.156Z,60.10
2023-04-18T21:49:24.505Z,60.10
2023-04-18T21:51:51.812Z,60.10
2023-04-18T21:54:18.788Z,60.20
2023-04-18T21:56:45.953Z,60.40
2023-04-18T21:59:12.904Z,60.70
2023-04-18T22:01:39.984Z,60.90
2023-04-18T22:04:07.193Z,61.20
2023-04-18T22:06:34.798Z,61.40
2023-04-18T22:09:01.896Z,61.70
2023-04-18T22:11:28.877Z,62.00
2023-04-18T22:13:58.001Z,62.20
2023-04-18T22:16:25.061Z,62.50
2023-04-18T22:18:52.115Z,62.60
2023-04-18T22:21:19.120Z,62.80
2023-04-18T22:23:46.038Z,63.00
2023-04-18T22:26:13.051Z,63.20
2023-04-18T22:28:40.127Z,63.40
2023-04-18T22:31:07.082Z,63.40
2023-04-18T22:33:34.196Z,63.50
2023-04-18T22:36:01.180Z,63.50
2023-04-18T22:38:28.095Z,63.40
2023-04-18T22:40:55.054Z,63.40
2023-04-18T22:43:23.775Z,63.50
2023-04-18T22:45:51.669Z,63.50
2023-04-18T22:48:19.203Z,63.70
2023-04-18T22:50:46.305Z,63.80
2023-04-18T22:53:15.103Z,63.90
2023-04-18T22:55:43.541Z,64.00
2023-04-18T22:58:11.139Z,64.10
2023-04-18T23:00:38.116Z,64.20
2023-04-18T23:03:05.277Z,64.30
2023-04-18T23:05:32.470Z,64.30
2023-04-18T23:08:00.479Z,64.30
2023-04-18T23:10:27.995Z,64.30
2023-04-18T23:12:55.033Z,64.40
2023-04-18T23:15:22.881Z,64.40
2023-04-18T23:17:53.053Z,64.40
2023-04-18T23:20:21.198Z,64.40
2023-04-18T23:22:51.346Z,64.40
2023-04-18T23:25:19.470Z,64.40
2023-04-18T23:27:47.038Z,64.30
2023-04-18T23:30:14.192Z,64.40
2023-04-18T23:32:41.245Z,64.40
2023-04-18T23:35:08.571Z,64.40
2023-04-18T23:37:35.534Z,64.30
2023-04-18T23:40:05.754Z,64.10
2023-04-18T23:42:34.780Z,64.20
2023-04-18T23:45:03.908Z,64.10
2023-04-18T23:47:30.961Z,64.10
2023-04-18T23:49:58.016Z,64.00
2023-04-18T23:52:24.948Z,63.90
2023-04-18T23:54:51.940Z,63.80
2023-04-18T23:57:18.872Z,63.80
2023-04-18T23:59:46.088Z,63.80
